Terminal Aerodrome Forecast
Issued by NWS Wilmington, OH

Current Version | Previous Version | Graphics & Text | Print | Product List | Glossary On
Versions: 1 2 3 4 5 6 7 8 9 10 11 12 13 14 15 16 17 18
554
FTUS41 KILN 162340
TAFCMH
TAF
KCMH 162340Z 1700/1724 VRB03KT P6SM FEW040 SCT250
     FM170500 12004KT P6SM BKN120
     FM171500 21007KT P6SM VCSH FEW040 SCT090
     FM171900 20010KT P6SM -SHRA VCTS BKN070CB=

USA.gov is the U.S. government's official web portal to all federal, state and local government web resources and services.